Time;durP1;ratioP1;P1;durP2;ratioP2;P2;SDS_P1;SDS_P2;PMS_P1;PMS_P2;Temp;Humidity;BMP_temperature;BMP_pressure;BME280_temperature;BME280_humidity;BME280_pressure;Samples;Min_cycle;Max_cycle;Signal;HPM_P1;HPM_P2
2022/07/11 00:03:08;;;;;;;4.00;1.10;;;;;;;11.80;74.73;99881.13;214217;1278;140412;-65
2022/07/11 00:08:14;;;;;;;4.20;2.40;;;;;;;11.86;74.98;99874.61;213181;1279;140950;-66
2022/07/11 00:13:20;;;;;;;1.30;1.20;;;;;;;11.83;74.85;99872.85;213329;1279;139723;-64
2022/07/11 00:18:25;;;;;;;1.20;1.20;;;;;;;11.78;75.17;99874.92;213370;1279;140890;-64
2022/07/11 00:23:31;;;;;;;4.00;2.10;;;;;;;11.84;75.65;99871.64;212950;1279;141514;-64
2022/07/11 00:28:35;;;;;;;2.00;1.10;;;;;;;11.88;75.66;99869.04;213000;1279;140268;-64
2022/07/11 00:33:40;;;;;;;1.30;0.90;;;;;;;11.89;75.95;99868.21;213053;1279;141211;-64
2022/07/11 00:38:48;;;;;;;3.30;1.50;;;;;;;11.96;76.04;99867.31;213033;1279;139916;-63
2022/07/11 00:43:58;;;;;;;2.30;1.10;;;;;;;12.04;75.87;99867.23;213054;1279;139679;-64
2022/07/11 00:49:03;;;;;;;1.70;1.20;;;;;;;12.03;75.89;99867.05;213190;1280;141436;-66
2022/07/11 00:54:09;;;;;;;2.10;1.50;;;;;;;11.98;75.74;99864.61;212947;1281;140451;-62
2022/07/11 00:59:19;;;;;;;2.60;1.40;;;;;;;11.95;76.04;99859.58;213113;1279;150439;-64
2022/07/11 01:04:24;;;;;;;3.40;1.60;;;;;;;11.96;75.95;99859.88;213260;1279;141018;-65
2022/07/11 01:09:30;;;;;;;1.00;1.00;;;;;;;11.94;76.12;99858.02;213098;1281;141889;-63
2022/07/11 01:14:34;;;;;;;3.20;1.50;;;;;;;11.99;76.41;99858.06;213201;1281;143208;-64
2022/07/11 01:19:38;;;;;;;1.70;1.60;;;;;;;12.03;76.57;99862.63;213095;1279;140036;-64
2022/07/11 01:24:44;;;;;;;5.20;1.30;;;;;;;12.08;76.81;99860.57;212972;1281;143070;-64
2022/07/11 01:29:50;;;;;;;5.30;1.50;;;;;;;12.07;76.42;99859.06;213942;1279;140880;-64
2022/07/11 01:34:54;;;;;;;11.20;1.70;;;;;;;12.04;76.44;99853.99;215186;1279;140591;-67
2022/07/11 01:39:59;;;;;;;1.70;1.30;;;;;;;12.08;76.31;99850.54;215170;1279;141480;-67
2022/07/11 01:45:03;;;;;;;4.30;1.40;;;;;;;12.09;76.36;99845.32;215253;1279;139519;-67
2022/07/11 01:50:07;;;;;;;6.20;1.30;;;;;;;12.00;75.98;99836.91;214008;1281;143996;-64
2022/07/11 01:55:12;;;;;;;6.70;2.00;;;;;;;11.89;76.27;99829.21;213244;1281;140989;-64
2022/07/11 02:00:17;;;;;;;2.90;0.90;;;;;;;11.93;76.49;99825.11;213324;1281;140309;-65
2022/07/11 02:05:21;;;;;;;5.10;1.70;;;;;;;11.88;76.31;99826.64;212985;1281;140251;-64
2022/07/11 02:10:29;;;;;;;0.80;0.80;;;;;;;11.84;76.22;99828.42;213342;1280;139635;-64
2022/07/11 02:15:33;;;;;;;10.60;2.50;;;;;;;11.72;76.57;99831.50;212623;1282;140491;-64
2022/07/11 02:20:39;;;;;;;1.10;1.10;;;;;;;11.72;76.61;99831.13;212814;1281;140210;-64
2022/07/11 02:25:45;;;;;;;8.60;1.70;;;;;;;11.65;76.34;99836.59;212953;1281;140697;-63
2022/07/11 02:30:49;;;;;;;1.50;1.40;;;;;;;11.55;76.39;99833.17;212798;1281;140428;-64
2022/07/11 02:35:53;;;;;;;3.00;1.50;;;;;;;11.44;76.30;99832.61;213060;1280;139469;-63
2022/07/11 02:40:58;;;;;;;2.00;1.30;;;;;;;11.37;76.35;99833.09;213141;1281;140848;-64
2022/07/11 02:46:03;;;;;;;1.50;1.50;;;;;;;11.31;76.50;99829.86;213018;1281;141339;-64
2022/07/11 02:51:07;;;;;;;2.10;1.90;;;;;;;11.23;76.07;99823.99;212859;1281;140028;-64
2022/07/11 02:56:12;;;;;;;7.30;2.10;;;;;;;11.15;76.19;99820.05;212962;1281;139949;-64
2022/07/11 03:01:19;;;;;;;1.60;1.50;;;;;;;11.07;76.19;99821.27;213019;1281;139952;-63
2022/07/11 03:06:25;;;;;;;1.70;1.50;;;;;;;10.98;76.28;99821.46;212957;1281;139701;-64
2022/07/11 03:11:30;;;;;;;4.60;1.70;;;;;;;10.92;76.55;99826.05;212854;1281;140548;-65
2022/07/11 03:16:35;;;;;;;2.10;1.60;;;;;;;10.89;76.48;99826.06;213022;1281;140806;-64
2022/07/11 03:21:40;;;;;;;1.60;1.40;;;;;;;10.90;76.63;99829.34;213004;1280;141153;-64
2022/07/11 03:26:45;;;;;;;4.70;2.10;;;;;;;10.92;76.51;99828.64;213325;1281;140853;-65
2022/07/11 03:31:49;;;;;;;2.80;2.10;;;;;;;10.91;76.65;99828.24;213471;1281;140301;-64
2022/07/11 03:36:54;;;;;;;5.40;2.10;;;;;;;10.91;76.81;99826.11;215223;1281;139451;-65
2022/07/11 03:41:58;;;;;;;4.40;2.20;;;;;;;11.00;77.21;99827.52;214940;1281;141053;-65
2022/07/11 03:47:02;;;;;;;2.90;2.20;;;;;;;11.31;77.72;99827.02;215328;1281;141129;-64
2022/07/11 03:52:06;;;;;;;3.90;2.80;;;;;;;11.81;77.67;99831.35;214618;1279;142293;-64
2022/07/11 03:57:10;;;;;;;3.50;2.40;;;;;;;11.99;77.59;99832.48;213108;1281;141127;-65
2022/07/11 04:02:15;;;;;;;3.70;2.00;;;;;;;12.17;77.41;99832.02;213213;1280;140892;-64
2022/07/11 04:07:20;;;;;;;16.70;3.00;;;;;;;12.36;77.44;99830.94;213191;1281;140424;-64
2022/07/11 04:12:25;;;;;;;3.60;2.50;;;;;;;12.47;77.57;99829.30;213103;1281;140726;-64
2022/07/11 04:17:30;;;;;;;9.50;2.00;;;;;;;12.66;77.38;99837.48;212713;1282;141593;-64
2022/07/11 04:22:34;;;;;;;9.30;3.90;;;;;;;12.99;77.39;99836.60;213092;1281;141328;-63
2022/07/11 04:27:39;;;;;;;6.80;2.50;;;;;;;14.01;76.61;99837.52;212964;1280;141585;-64
2022/07/11 04:32:43;;;;;;;4.00;1.80;;;;;;;16.62;73.46;99832.71;212726;1281;140540;-64
2022/07/11 04:37:48;;;;;;;7.80;2.00;;;;;;;17.53;72.29;99836.10;213139;1279;139147;-64
2022/07/11 04:42:53;;;;;;;5.70;2.80;;;;;;;17.54;71.09;99834.20;213340;1281;140122;-64
2022/07/11 04:48:01;;;;;;;4.00;1.30;;;;;;;19.15;68.62;99826.30;213341;1279;141283;-65
2022/07/11 04:53:06;;;;;;;4.90;2.60;;;;;;;19.41;67.25;99827.45;213045;1281;162387;-63
2022/07/11 04:58:11;;;;;;;3.60;1.80;;;;;;;19.94;65.94;99825.35;213341;1280;231305;-64
2022/07/11 05:03:16;;;;;;;8.60;1.70;;;;;;;20.05;65.19;99823.79;213210;1279;139322;-65
2022/07/11 05:08:21;;;;;;;3.90;1.80;;;;;;;19.74;64.37;99832.31;212662;1281;141071;-66
2022/07/11 05:13:25;;;;;;;7.70;1.90;;;;;;;21.88;62.04;99838.30;212957;1279;138983;-66
2022/07/11 05:18:29;;;;;;;8.40;1.70;;;;;;;22.78;60.09;99850.16;213412;1279;140030;-64
2022/07/11 05:23:34;;;;;;;0.90;0.80;;;;;;;21.19;60.78;99855.52;215044;1279;140676;-64
2022/07/11 05:28:39;;;;;;;3.80;1.30;;;;;;;19.91;60.80;99854.08;215124;1279;141106;-64
2022/07/11 05:33:44;;;;;;;3.00;1.70;;;;;;;19.07;61.73;99855.53;215206;1279;141211;-64
2022/07/11 05:38:48;;;;;;;4.00;2.10;;;;;;;18.48;62.25;99858.70;215243;1279;140539;-64
2022/07/11 05:43:52;;;;;;;5.00;1.50;;;;;;;18.17;62.67;99867.21;215044;1279;140646;-64
2022/07/11 05:48:55;;;;;;;2.90;1.80;;;;;;;18.09;62.83;99864.89;215286;1279;140520;-64
2022/07/11 05:53:59;;;;;;;4.90;2.00;;;;;;;19.20;61.77;99855.23;213149;1280;141628;-63
2022/07/11 05:59:04;;;;;;;2.30;1.50;;;;;;;22.10;59.63;99849.10;213224;1279;163741;-64
2022/07/11 06:04:09;;;;;;;3.40;1.50;;;;;;;25.26;56.88;99847.13;212635;1281;144087;-63
2022/07/11 06:09:16;;;;;;;9.50;2.20;;;;;;;26.40;54.35;99848.91;212901;1281;140357;-63
2022/07/11 06:14:23;;;;;;;3.10;1.40;;;;;;;27.98;51.97;99850.17;212847;1280;139558;-63
2022/07/11 06:19:29;;;;;;;2.10;1.60;;;;;;;26.59;50.61;99855.48;213051;1280;140484;-62
2022/07/11 06:24:34;;;;;;;3.70;1.50;;;;;;;24.60;50.67;99858.23;212886;1281;141114;-63
2022/07/11 06:29:40;;;;;;;2.40;1.80;;;;;;;23.18;51.65;99860.30;213148;1280;204012;-63
2022/07/11 06:34:45;;;;;;;2.50;1.60;;;;;;;22.32;52.50;99860.26;213005;1279;139939;-63
2022/07/11 06:39:49;;;;;;;4.30;1.60;;;;;;;22.35;52.85;99858.19;212371;1279;139384;-64
2022/07/11 06:44:54;;;;;;;8.00;1.90;;;;;;;23.60;52.02;99856.65;213039;1280;152004;-64
2022/07/11 06:49:59;;;;;;;5.40;2.00;;;;;;;24.48;51.53;99862.72;213063;1281;152290;-64
2022/07/11 06:55:05;;;;;;;8.00;4.20;;;;;;;23.95;50.95;99863.78;213011;1280;141757;-64
2022/07/11 07:00:11;;;;;;;2.40;2.20;;;;;;;23.56;50.85;99862.55;213002;1279;140218;-62
2022/07/11 07:05:18;;;;;;;9.30;1.60;;;;;;;22.81;50.89;99873.49;213099;1279;140472;-64
2022/07/11 07:10:25;;;;;;;2.60;1.50;;;;;;;22.08;51.86;99876.29;213088;1279;140417;-64
2022/07/11 07:15:30;;;;;;;4.50;2.10;;;;;;;21.58;52.50;99863.44;213083;1279;141130;-64
2022/07/11 07:20:36;;;;;;;4.00;2.00;;;;;;;21.06;53.03;99860.53;212848;1279;141033;-63
2022/07/11 07:25:41;;;;;;;9.20;1.30;;;;;;;20.72;53.72;99856.34;213526;1279;140506;-64
2022/07/11 07:30:47;;;;;;;4.00;1.50;;;;;;;20.33;54.27;99852.68;215178;1279;140108;-64
2022/07/11 07:35:51;;;;;;;4.10;1.70;;;;;;;20.03;54.77;99851.47;215191;1279;140722;-64
2022/07/11 07:40:55;;;;;;;4.30;1.40;;;;;;;19.55;55.07;99852.19;214754;1279;139813;-64
2022/07/11 07:46:00;;;;;;;2.70;0.90;;;;;;;19.23;55.54;99857.08;214704;1280;145733;-65
2022/07/11 07:51:05;;;;;;;0.80;0.80;;;;;;;18.97;55.92;99860.56;213633;1279;141307;-62
2022/07/11 07:56:10;;;;;;;1.00;1.00;;;;;;;18.73;56.35;99862.98;213373;1279;140785;-63
2022/07/11 08:01:35;;;;;;;1.70;1.00;;;;;;;18.44;56.61;99875.95;213047;1279;151644;-64
2022/07/11 08:06:49;;;;;;;1.00;0.90;;;;;;;18.26;57.09;99873.68;213056;1279;140350;-65
2022/07/11 08:12:09;;;;;;;3.00;0.60;;;;;;;18.18;57.75;99870.92;213074;1279;139567;-63
2022/07/11 08:17:18;;;;;;;1.50;1.00;;;;;;;18.10;57.49;99873.30;213051;1279;139876;-63
2022/07/11 08:22:25;;;;;;;4.20;0.60;;;;;;;18.03;57.62;99879.19;213107;1280;139657;-63
2022/07/11 08:27:32;;;;;;;1.10;0.70;;;;;;;17.89;57.51;99881.80;212873;1279;140076;-64
2022/07/11 08:32:45;;;;;;;2.10;0.80;;;;;;;17.72;57.42;99876.08;212922;1280;139789;-65
2022/07/11 08:37:54;;;;;;;2.00;0.90;;;;;;;17.66;57.70;99877.25;213164;1279;140025;-65
2022/07/11 08:43:05;;;;;;;5.60;0.80;;;;;;;17.67;57.32;99875.90;212707;1281;140906;-65
2022/07/11 08:48:12;;;;;;;1.90;0.70;;;;;;;17.64;57.35;99874.66;212847;1279;162805;-66
2022/07/11 08:53:30;;;;;;;2.20;0.50;;;;;;;17.73;57.35;99872.90;212904;1279;139843;-65
2022/07/11 08:58:48;;;;;;;0.50;0.50;;;;;;;18.47;58.12;99862.92;212784;1279;140905;-65
2022/07/11 09:04:01;;;;;;;0.30;0.30;;;;;;;19.72;58.00;99853.42;213084;1280;140487;-65
2022/07/11 09:09:06;;;;;;;0.30;0.30;;;;;;;20.80;56.96;99854.61;212696;1279;139513;-65
2022/07/11 09:14:22;;;;;;;0.30;0.30;;;;;;;21.11;55.24;99856.10;212851;1281;139569;-65
2022/07/11 09:19:42;;;;;;;0.20;0.20;;;;;;;21.34;54.72;99850.46;213112;1279;140231;-65
2022/07/11 09:25:20;;;;;;;1.00;0.50;;;;;;;21.44;54.03;99855.11;213322;1281;140481;-65
2022/07/11 09:30:39;;;;;;;1.30;0.50;;;;;;;21.95;53.81;99851.72;213269;1281;140508;-65
2022/07/11 09:35:46;;;;;;;0.60;0.50;;;;;;;22.28;52.54;99853.08;213062;1279;142177;-64
2022/07/11 09:40:52;;;;;;;0.30;0.30;;;;;;;22.69;51.98;99849.45;215104;1279;162465;-65
2022/07/11 09:46:07;;;;;;;0.30;0.30;;;;;;;23.08;51.40;99848.91;215074;1279;140398;-66
2022/07/11 09:51:20;;;;;;;3.40;0.40;;;;;;;22.65;49.82;99849.16;215082;1279;141477;-65
2022/07/11 09:56:26;;;;;;;3.10;0.60;;;;;;;21.96;49.48;99857.19;212954;1280;140765;-64
2022/07/11 10:01:57;;;;;;;0.30;0.30;;;;;;;21.50;49.94;99858.52;213147;1279;139782;-64
2022/07/11 10:07:04;;;;;;;5.80;0.70;;;;;;;21.66;50.67;99849.92;213080;1280;140479;-64
2022/07/11 10:12:09;;;;;;;0.40;0.40;;;;;;;22.22;51.15;99855.15;213031;1280;140646;-65
2022/07/11 10:17:36;;;;;;;4.20;0.80;;;;;;;22.62;50.47;99858.71;213130;1279;140875;-66
2022/07/11 10:22:56;;;;;;;0.30;0.30;;;;;;;22.43;50.42;99866.30;213044;1279;140306;-65
2022/07/11 10:28:05;;;;;;;0.40;0.40;;;;;;;22.32;50.41;99866.27;213151;1280;141508;-65
2022/07/11 10:33:08;;;;;;;1.20;0.40;;;;;;;22.19;50.33;99867.90;213022;1279;140584;-64
2022/07/11 10:38:14;;;;;;;0.70;0.20;;;;;;;22.36;50.79;99864.82;212874;1279;141033;-65
2022/07/11 10:43:39;;;;;;;0.50;0.50;;;;;;;22.63;50.50;99859.87;213259;1279;140639;-65
2022/07/11 10:49:07;;;;;;;0.90;0.40;;;;;;;22.77;50.48;99860.25;212899;1279;141658;-63
2022/07/11 10:54:18;;;;;;;0.40;0.40;;;;;;;22.91;50.51;99857.01;213159;1279;140867;-65
2022/07/11 10:59:24;;;;;;;4.90;0.40;;;;;;;23.04;49.64;99853.75;213035;1279;140221;-65
2022/07/11 11:04:44;;;;;;;0.70;0.50;;;;;;;23.01;48.82;99846.98;211763;1279;1484010;-65
2022/07/11 11:09:52;;;;;;;2.50;0.90;;;;;;;22.97;49.09;99838.99;213277;1279;139451;-64
2022/07/11 11:15:34;;;;;;;0.50;0.50;;;;;;;22.99;48.95;99840.84;212851;1279;140983;-64
2022/07/11 11:20:41;;;;;;;0.70;0.60;;;;;;;22.59;48.38;99848.40;213485;1281;140392;-65
2022/07/11 11:25:49;;;;;;;0.50;0.50;;;;;;;21.95;48.80;99860.25;215141;1280;139520;-65
2022/07/11 11:30:55;;;;;;;2.20;0.60;;;;;;;21.48;49.96;99858.08;214896;1279;141321;-66
2022/07/11 11:36:08;;;;;;;0.70;0.70;;;;;;;21.23;50.35;99873.49;214939;1279;140341;-65
2022/07/11 11:41:13;;;;;;;2.70;1.00;;;;;;;20.91;49.92;99891.73;215062;1279;139734;-65
2022/07/11 11:46:18;;;;;;;5.70;0.70;;;;;;;20.50;49.85;99903.40;214907;1280;140171;-66
2022/07/11 11:51:23;;;;;;;0.40;0.40;;;;;;;19.88;49.77;99915.75;214828;1279;140005;-64
2022/07/11 11:56:30;;;;;;;0.20;0.20;;;;;;;19.56;50.35;99913.95;212693;1279;140133;-64
2022/07/11 12:01:37;;;;;;;0.50;0.50;;;;;;;19.43;51.43;99897.88;213087;1280;140369;-64
2022/07/11 12:06:50;;;;;;;0.30;0.30;;;;;;;19.41;52.32;99899.52;213071;1279;140105;-64
2022/07/11 12:17:24;;;;;;;2.40;1.50;;;;;;;19.14;53.43;99889.62;212236;1281;140846;-67
2022/07/11 12:22:29;;;;;;;0.50;0.50;;;;;;;18.96;53.56;99885.75;212757;1279;140657;-65
2022/07/11 12:27:35;;;;;;;2.00;1.00;;;;;;;19.03;54.23;99885.79;213065;1279;139653;-65
2022/07/11 12:32:41;;;;;;;0.30;0.30;;;;;;;19.37;54.51;99880.58;213179;1279;140213;-66
2022/07/11 12:37:54;;;;;;;0.40;0.40;;;;;;;19.41;54.03;99872.91;213010;1279;150792;-66
2022/07/11 12:44:56;;;;;;;0.40;0.40;;;;;;;19.74;53.88;99877.58;212639;1279;141295;-65
2022/07/11 12:48:38;;;;;;;0.20;0.20;;;;;;;20.26;53.13;99874.38;212580;1279;140206;-65
2022/07/11 12:53:45;;;;;;;0.30;0.30;;;;;;;20.17;52.62;99889.84;212780;1279;140216;-65
2022/07/11 12:58:53;;;;;;;0.50;0.50;;;;;;;20.25;52.75;99897.39;212523;1279;139534;-63
2022/07/11 13:03:58;;;;;;;0.80;0.60;;;;;;;20.80;53.26;99903.55;212312;1282;139566;-65
2022/07/11 13:09:04;;;;;;;0.70;0.70;;;;;;;21.47;53.01;99893.73;212720;1276;139347;-65
2022/07/11 13:15:08;;;;;;;0.50;0.50;;;;;;;22.01;52.81;99888.88;212931;1279;141101;-64
2022/07/11 13:19:37;;;;;;;0.50;0.50;;;;;;;21.76;52.10;99893.02;213429;1279;139909;-66
2022/07/11 13:24:42;;;;;;;5.40;0.60;;;;;;;21.02;51.87;99900.66;215000;1279;141668;-65
2022/07/11 13:29:46;;;;;;;3.90;0.70;;;;;;;20.35;52.24;99894.60;215171;1279;140148;-66
2022/07/11 13:34:50;;;;;;;0.50;0.50;;;;;;;20.01;52.95;99900.95;215084;1279;141039;-65
2022/07/11 13:39:54;;;;;;;0.50;0.50;;;;;;;19.63;53.28;99899.16;215141;1279;139759;-64
2022/07/11 13:45:03;;;;;;;0.40;0.40;;;;;;;19.25;53.91;99892.71;215107;1279;139630;-65
2022/07/11 13:50:08;;;;;;;1.30;0.80;;;;;;;18.96;54.94;99893.31;214297;1279;140014;-65
2022/07/11 13:55:12;;;;;;;2.00;0.50;;;;;;;18.88;55.53;99894.70;213322;1279;139631;-64
2022/07/11 14:00:17;;;;;;;3.70;0.80;;;;;;;18.72;55.96;99908.23;213019;1279;140320;-65
2022/07/11 14:05:23;;;;;;;0.70;0.70;;;;;;;18.49;56.73;99917.81;213031;1279;230791;-66
2022/07/11 14:10:27;;;;;;;1.50;0.70;;;;;;;18.13;57.40;99916.51;213092;1279;141996;-65
2022/07/11 14:15:32;;;;;;;2.30;0.90;;;;;;;17.84;58.52;99915.59;212822;1279;140526;-65
2022/07/11 14:20:36;;;;;;;1.30;1.00;;;;;;;17.79;59.67;99916.33;212800;1279;140444;-65
2022/07/11 14:25:42;;;;;;;0.60;0.60;;;;;;;17.88;60.29;99921.40;212851;1279;140792;-65
2022/07/11 14:30:46;;;;;;;0.70;0.70;;;;;;;18.17;60.79;99923.86;212869;1280;139992;-65
2022/07/11 14:35:51;;;;;;;0.80;0.60;;;;;;;18.61;60.70;99923.51;213019;1279;140279;-68
2022/07/11 14:40:55;;;;;;;0.50;0.50;;;;;;;18.69;60.44;99927.55;212778;1279;139561;-65
2022/07/11 14:46:00;;;;;;;1.60;0.80;;;;;;;18.61;60.78;99934.05;213054;1279;140109;-65
2022/07/11 14:51:05;;;;;;;4.80;0.70;;;;;;;18.52;61.10;99940.19;212624;1279;140490;-63
2022/07/11 14:56:09;;;;;;;0.70;0.70;;;;;;;18.47;61.62;99946.60;212645;1279;142574;-65
2022/07/11 15:01:34;;;;;;;0.50;0.50;;;;;;;18.38;62.16;99957.51;212826;1279;141043;-65
2022/07/11 15:12:20;;;;;;;0.80;0.70;;;;;;;18.22;63.08;99959.72;214972;1279;141209;-67
2022/07/11 15:17:25;;;;;;;1.60;0.80;;;;;;;18.17;62.87;99961.70;215097;1279;140979;-66
2022/07/11 15:22:30;;;;;;;1.00;1.00;;;;;;;18.13;63.14;99954.97;215200;1279;142421;-65
2022/07/11 15:27:34;;;;;;;1.30;0.80;;;;;;;18.36;63.01;99949.48;215121;1279;141759;-65
2022/07/11 15:32:38;;;;;;;1.30;0.60;;;;;;;18.60;62.55;99939.98;215158;1279;140928;-65
2022/07/11 15:37:43;;;;;;;0.50;0.50;;;;;;;18.79;62.29;99937.99;215171;1279;140990;-65
2022/07/11 15:42:48;;;;;;;0.30;0.30;;;;;;;18.93;61.68;99941.83;215123;1279;140791;-66
2022/07/11 15:47:56;;;;;;;0.60;0.60;;;;;;;19.04;61.00;99932.23;213537;1279;140487;-65
2022/07/11 15:53:01;;;;;;;1.60;0.50;;;;;;;19.22;60.77;99931.03;213142;1279;140104;-64
2022/07/11 15:58:06;;;;;;;0.40;0.30;;;;;;;19.33;60.12;99939.13;213040;1279;139039;-64
2022/07/11 16:03:12;;;;;;;0.30;0.30;;;;;;;19.38;59.61;99942.85;213067;1279;140075;-63
2022/07/11 16:08:16;;;;;;;0.40;0.40;;;;;;;19.35;59.26;99953.20;213073;1279;139930;-63
2022/07/11 16:13:20;;;;;;;0.30;0.30;;;;;;;19.20;59.14;99961.64;212980;1279;143404;-66
2022/07/11 16:18:25;;;;;;;0.30;0.30;;;;;;;18.94;59.06;99971.68;213015;1279;139571;-65
2022/07/11 16:23:31;;;;;;;0.30;0.30;;;;;;;18.69;58.86;99972.11;212671;1279;140226;-64
2022/07/11 16:28:35;;;;;;;0.30;0.30;;;;;;;18.51;59.48;99974.53;212849;1279;141217;-63
2022/07/11 16:33:40;;;;;;;1.40;0.20;;;;;;;18.38;59.64;99975.59;212636;1279;140421;-64
2022/07/11 16:44:13;;;;;;;0.70;0.30;;;;;;;17.96;59.96;99978.96;212525;1279;139880;-65
2022/07/11 16:49:16;;;;;;;0.40;0.30;;;;;;;17.74;59.87;99979.66;213029;1279;139553;-64
2022/07/11 16:54:21;;;;;;;1.50;0.20;;;;;;;17.69;60.28;99977.96;212711;1278;139395;-65
2022/07/11 16:59:26;;;;;;;0.50;0.50;;;;;;;17.69;60.62;99978.29;212516;1281;139131;-65
2022/07/11 17:04:32;;;;;;;3.20;0.50;;;;;;;17.67;60.83;99978.94;212689;1282;139178;-64
2022/07/11 17:09:37;;;;;;;0.40;0.40;;;;;;;17.72;61.07;99974.60;212768;1279;140335;-63
2022/07/11 17:14:41;;;;;;;0.70;0.50;;;;;;;17.76;61.05;99978.09;212887;1279;139616;-65
2022/07/11 17:19:51;;;;;;;0.50;0.50;;;;;;;17.69;61.15;99976.99;215201;1279;140069;-64
2022/07/11 17:24:56;;;;;;;0.30;0.30;;;;;;;17.64;61.33;99985.02;215108;1279;140883;-64
2022/07/11 17:30:04;;;;;;;2.00;0.50;;;;;;;17.55;61.52;99988.80;215395;1279;141190;-66
2022/07/11 17:35:09;;;;;;;1.00;0.60;;;;;;;17.60;61.99;99986.91;215254;1279;143319;-65
2022/07/11 17:40:15;;;;;;;3.50;0.60;;;;;;;17.63;61.94;99990.14;215085;1279;140240;-64
2022/07/11 17:45:19;;;;;;;0.70;0.70;;;;;;;17.65;62.15;99994.84;215323;1279;139857;-66
2022/07/11 17:50:25;;;;;;;0.70;0.70;;;;;;;17.65;62.30;99992.48;215190;1279;139664;-66
2022/07/11 17:55:33;;;;;;;0.80;0.80;;;;;;;17.62;62.13;99993.42;214012;1279;154247;-65
2022/07/11 18:00:41;;;;;;;1.30;0.90;;;;;;;17.58;62.52;99997.75;213054;1281;141216;-66
2022/07/11 18:05:46;;;;;;;0.70;0.70;;;;;;;17.53;62.79;99997.01;213180;1279;140898;-65
2022/07/11 18:10:53;;;;;;;3.00;1.80;;;;;;;17.44;63.03;100004.41;212792;1281;140824;-64
2022/07/11 18:16:00;;;;;;;2.70;1.50;;;;;;;17.24;63.20;100009.73;212709;1281;140383;-64
2022/07/11 18:21:06;;;;;;;3.60;1.80;;;;;;;17.09;63.64;100018.42;212823;1281;139533;-65
2022/07/11 18:26:11;;;;;;;;;;;;;;;16.96;63.88;100022.84;212891;1281;142795;-65
2022/07/11 18:31:22;;;;;;;;;;;;;;;16.83;64.32;100024.52;213436;1281;127705;-65
2022/07/11 18:36:29;;;;;;;1.50;1.30;;;;;;;16.66;64.59;100032.63;213433;1279;127129;-64
2022/07/11 18:41:33;;;;;;;4.00;1.40;;;;;;;16.47;64.89;100034.77;212979;1281;139975;-65
2022/07/11 18:46:40;;;;;;;1.30;1.10;;;;;;;16.28;65.18;100033.43;212686;1280;139384;-65
2022/07/11 18:51:45;;;;;;;4.50;1.20;;;;;;;16.16;65.64;100034.81;212834;1281;139814;-65
2022/07/11 18:56:49;;;;;;;1.30;1.20;;;;;;;16.11;66.08;100035.16;212567;1281;139958;-66
2022/07/11 19:01:58;;;;;;;1.80;0.90;;;;;;;16.02;66.31;100034.31;212913;1281;155503;-68
2022/07/11 19:07:34;;;;;;;3.30;1.30;;;;;;;15.93;66.57;100036.64;213011;1279;142585;-66
2022/07/11 19:12:55;;;;;;;1.10;1.00;;;;;;;15.79;66.75;100035.40;212481;1281;141030;-66
2022/07/11 19:18:05;;;;;;;1.70;0.90;;;;;;;15.64;66.99;100035.96;212671;1281;140659;-64
2022/07/11 19:23:12;;;;;;;9.20;1.80;;;;;;;15.51;67.09;100037.81;213023;1280;141016;-64
2022/07/11 19:28:18;;;;;;;2.20;1.60;;;;;;;15.39;67.28;100033.73;214975;1281;141567;-66
2022/07/11 19:33:23;;;;;;;2.00;1.20;;;;;;;15.33;67.81;100033.97;215093;1280;140146;-64
2022/07/11 19:38:30;;;;;;;2.70;1.60;;;;;;;15.23;67.94;100029.56;215102;1280;139692;-65
2022/07/11 19:43:48;;;;;;;1.70;1.40;;;;;;;15.20;68.18;100031.10;215184;1280;140307;-65
2022/07/11 19:48:52;;;;;;;1.70;1.60;;;;;;;15.18;68.35;100031.02;214988;1279;141038;-66
2022/07/11 19:53:56;;;;;;;1.50;1.40;;;;;;;15.15;68.26;100028.59;213457;1281;141282;-61
2022/07/11 19:59:01;;;;;;;1.50;1.40;;;;;;;15.08;68.10;100028.21;212985;1281;140372;-62
2022/07/11 20:04:05;;;;;;;5.40;1.40;;;;;;;14.98;68.44;100029.05;212648;1280;141772;-63
2022/07/11 20:09:10;;;;;;;2.00;0.90;;;;;;;14.86;68.54;100030.56;213076;1281;141692;-63
2022/07/11 20:14:15;;;;;;;1.80;1.30;;;;;;;14.75;68.70;100029.86;212703;1281;141186;-62
2022/07/11 20:19:21;;;;;;;5.50;1.40;;;;;;;14.70;69.20;100024.66;212901;1281;142986;-63
2022/07/11 20:24:25;;;;;;;1.90;1.70;;;;;;;14.65;69.30;100024.21;212652;1281;141096;-62
2022/07/11 20:29:30;;;;;;;1.50;1.40;;;;;;;14.59;69.49;100032.63;212851;1281;141488;-64
2022/07/11 20:34:36;;;;;;;2.20;1.90;;;;;;;14.45;69.71;100037.31;212767;1281;140149;-63
2022/07/11 20:39:40;;;;;;;3.10;1.70;;;;;;;14.39;69.82;100039.89;212868;1281;141254;-63
2022/07/11 20:44:46;;;;;;;2.00;1.40;;;;;;;14.37;70.09;100045.14;212449;1281;142319;-63
2022/07/11 20:49:50;;;;;;;2.10;2.00;;;;;;;14.37;69.99;100044.44;212998;1281;223728;-63
2022/07/11 20:54:55;;;;;;;1.30;1.20;;;;;;;14.33;70.16;100047.52;212672;1281;153025;-64
2022/07/11 21:00:00;;;;;;;2.20;1.30;;;;;;;14.24;70.19;100049.65;212673;1281;141595;-62
2022/07/11 21:05:04;;;;;;;2.30;1.70;;;;;;;14.17;70.22;100055.95;213121;1281;140567;-62
2022/07/11 21:10:11;;;;;;;1.50;1.10;;;;;;;14.10;70.46;100058.65;212744;1281;144491;-64
2022/07/11 21:15:15;;;;;;;3.80;1.50;;;;;;;14.07;70.51;100061.14;212885;1281;141890;-63
2022/07/11 21:20:20;;;;;;;3.60;1.50;;;;;;;14.03;70.56;100064.70;212786;1279;140849;-63
2022/07/11 21:25:24;;;;;;;2.30;1.30;;;;;;;13.96;70.70;100065.83;212942;1281;141558;-63
2022/07/11 21:30:29;;;;;;;1.30;1.20;;;;;;;13.92;70.92;100069.58;213745;1280;141618;-63
2022/07/11 21:35:34;;;;;;;2.10;1.90;;;;;;;13.92;71.13;100071.52;215196;1279;140966;-65
2022/07/11 21:40:40;;;;;;;2.00;1.60;;;;;;;13.97;71.26;100073.73;215229;1279;142526;-63
2022/07/11 21:45:44;;;;;;;3.20;1.80;;;;;;;14.00;71.58;100077.15;215045;1281;140411;-65
2022/07/11 21:50:55;;;;;;;2.20;1.20;;;;;;;14.06;71.66;100076.35;215240;1279;140553;-63
2022/07/11 21:56:00;;;;;;;2.00;1.40;;;;;;;14.10;71.96;100078.16;213974;1280;142270;-62
2022/07/11 22:01:04;;;;;;;3.40;1.70;;;;;;;14.17;71.98;100079.12;213739;1279;142178;-64
2022/07/11 22:06:08;;;;;;;1.20;1.20;;;;;;;14.26;72.20;100082.49;212865;1281;139973;-63
2022/07/11 22:11:13;;;;;;;2.00;1.90;;;;;;;14.26;72.21;100078.17;213030;1279;139680;-64
2022/07/11 22:16:17;;;;;;;2.30;1.60;;;;;;;14.19;72.37;100073.79;212672;1279;140297;-64
2022/07/11 22:21:22;;;;;;;3.00;1.50;;;;;;;14.15;72.51;100077.42;212909;1281;141054;-63
2022/07/11 22:26:27;;;;;;;1.90;1.70;;;;;;;14.17;72.86;100082.42;213093;1281;141577;-64
2022/07/11 22:31:33;;;;;;;;;;;;;;;14.22;72.93;100081.91;212731;1280;143777;-64
2022/07/11 22:36:38;;;;;;;3.60;1.40;;;;;;;14.23;73.10;100084.66;213615;1281;129095;-62
2022/07/11 22:41:44;;;;;;;4.20;1.40;;;;;;;14.24;73.16;100087.14;212643;1281;142104;-63
2022/07/11 22:46:48;;;;;;;2.90;1.50;;;;;;;14.24;73.36;100093.15;212694;1280;142248;-65
2022/07/11 22:52:13;;;;;;;4.40;1.70;;;;;;;14.26;73.41;100095.75;212796;1279;140986;-62
2022/07/11 22:57:38;;;;;;;3.20;1.70;;;;;;;14.23;73.29;100091.79;212758;1280;140431;-64
2022/07/11 23:02:42;;;;;;;1.10;1.00;;;;;;;14.19;73.39;100092.86;212927;1279;139284;-62
2022/07/11 23:07:47;;;;;;;3.70;2.00;;;;;;;14.14;73.50;100085.14;212612;1279;550771;-64
2022/07/11 23:12:52;;;;;;;2.40;2.30;;;;;;;14.10;73.58;100082.98;212698;1281;141117;-62
2022/07/11 23:17:58;;;;;;;3.50;1.70;;;;;;;14.11;73.71;100085.14;212802;1279;141775;-61
2022/07/11 23:23:04;;;;;;;2.90;1.50;;;;;;;14.14;73.74;100084.70;213010;1279;139457;-63
2022/07/11 23:28:08;;;;;;;2.10;1.30;;;;;;;14.16;73.85;100081.99;213414;1279;139354;-63
2022/07/11 23:33:13;;;;;;;4.30;1.40;;;;;;;14.14;73.80;100087.87;215248;1279;141019;-64
2022/07/11 23:38:17;;;;;;;5.00;1.40;;;;;;;14.19;73.89;100092.65;215183;1279;141422;-63
2022/07/11 23:43:22;;;;;;;2.30;1.90;;;;;;;14.24;73.76;100097.81;215098;1279;140808;-63
2022/07/11 23:48:27;;;;;;;3.50;1.00;;;;;;;14.31;73.77;100100.90;215040;1279;140722;-64